Time;durP1;ratioP1;P1;durP2;ratioP2;P2;SDS_P1;SDS_P2;PMS_P1;PMS_P2;Temp;Humidity;BMP_temperature;BMP_pressure;BME280_temperature;BME280_humidity;BME280_pressure;Samples;Min_cycle;Max_cycle;Signal;HPM_P1;HPM_P2
2023/07/29 00:01:13;;;;;;;1.05;0.95;;;;;;;21.31;100.00;97336.03;1223979;75;2922804;-70
2023/07/29 00:03:45;;;;;;;1.10;1.00;;;;;;;21.23;100.00;97338.81;1222984;75;2939797;-69
2023/07/29 00:06:18;;;;;;;1.20;1.05;;;;;;;21.22;100.00;97337.34;1223088;75;2923519;-71
2023/07/29 00:08:51;;;;;;;1.20;1.10;;;;;;;21.00;100.00;97338.84;1223297;75;2921717;-66
2023/07/29 00:11:23;;;;;;;1.20;1.10;;;;;;;20.93;100.00;97339.56;1223316;75;2925924;-66
2023/07/29 00:13:56;;;;;;;1.70;1.35;;;;;;;20.71;100.00;97344.53;1223863;75;2925263;-69
2023/07/29 00:16:31;;;;;;;1.55;1.35;;;;;;;20.66;100.00;97353.78;1223735;75;2928840;-68
2023/07/29 00:19:05;;;;;;;1.55;1.40;;;;;;;20.75;100.00;97349.72;1221852;75;2936403;-66
2023/07/29 00:21:38;;;;;;;1.40;1.10;;;;;;;20.76;100.00;97362.34;1222605;75;2925660;-63
2023/07/29 00:24:10;;;;;;;2.75;1.30;;;;;;;20.62;100.00;97361.75;1223623;75;2936943;-70
2023/07/29 00:26:43;;;;;;;2.25;1.40;;;;;;;20.33;100.00;97361.81;1223638;75;2940382;-67
2023/07/29 00:29:15;;;;;;;2.05;1.75;;;;;;;20.21;100.00;97357.88;1223373;75;2922717;-65
2023/07/29 00:31:51;;;;;;;2.95;1.95;;;;;;;20.26;100.00;97351.41;1223255;75;2929163;-68
2023/07/29 00:34:23;;;;;;;3.00;1.95;;;;;;;20.56;100.00;97339.66;1222984;75;2932192;-65
2023/07/29 00:36:56;;;;;;;1.45;1.30;;;;;;;20.70;100.00;97334.69;1222902;75;2923797;-67
2023/07/29 00:39:29;;;;;;;1.30;1.20;;;;;;;20.70;100.00;97340.25;1221984;75;2927580;-67
2023/07/29 00:42:02;;;;;;;1.20;1.00;;;;;;;20.60;100.00;97340.03;1222603;75;2927631;-71
2023/07/29 00:44:34;;;;;;;1.05;0.95;;;;;;;20.75;100.00;97336.53;1223192;75;2924337;-70
2023/07/29 00:47:10;;;;;;;1.40;1.10;;;;;;;20.69;100.00;97341.56;1222543;75;2935264;-66
2023/07/29 00:49:43;;;;;;;1.15;1.05;;;;;;;20.58;100.00;97337.06;1222467;75;2937571;-67
2023/07/29 00:52:16;;;;;;;2.05;1.50;;;;;;;20.38;100.00;97324.75;1222864;75;2919791;-65
2023/07/29 00:54:48;;;;;;;1.45;1.20;;;;;;;20.42;100.00;97333.47;1223673;75;2923097;-65
2023/07/29 00:57:22;;;;;;;1.30;1.05;;;;;;;20.58;100.00;97331.50;1223797;75;2921711;-66
2023/07/29 00:59:55;;;;;;;1.60;1.00;;;;;;;20.63;100.00;97327.06;1221159;75;2928991;-67
2023/07/29 01:02:32;;;;;;;1.55;0.95;;;;;;;20.56;100.00;97319.44;1222609;75;2849092;-71
2023/07/29 01:05:06;;;;;;;1.00;0.90;;;;;;;20.54;100.00;97310.88;1223164;75;2940350;-69
2023/07/29 01:07:50;;;;;;;1.20;1.10;;;;;;;20.50;100.00;97307.75;1222832;75;2933020;-68
2023/07/29 01:10:38;;;;;;;1.00;0.90;;;;;;;20.37;100.00;97308.59;1221315;75;2931433;-70
2023/07/29 01:13:20;;;;;;;1.35;1.05;;;;;;;20.42;100.00;97305.69;1224112;75;2924599;-72
2023/07/29 01:15:58;;;;;;;1.00;0.90;;;;;;;20.27;100.00;97310.44;1223157;75;2928744;-67
2023/07/29 01:18:38;;;;;;;1.25;1.05;;;;;;;20.18;100.00;97308.94;1223501;75;2934119;-69
2023/07/29 01:21:14;;;;;;;1.10;1.00;;;;;;;20.31;100.00;97313.59;1224017;75;2925973;-67
2023/07/29 01:23:49;;;;;;;0.95;0.80;;;;;;;20.11;100.00;97318.00;1223697;75;2941805;-69
2023/07/29 01:26:21;;;;;;;1.30;1.20;;;;;;;19.87;100.00;97319.91;1223730;75;2922643;-64
2023/07/29 01:28:54;;;;;;;1.85;1.30;;;;;;;19.81;100.00;97315.78;1223326;75;2929098;-66
2023/07/29 01:31:36;;;;;;;1.30;1.20;;;;;;;20.05;100.00;97304.25;1222462;75;2945935;-67
2023/07/29 01:34:17;;;;;;;1.65;1.15;;;;;;;20.04;100.00;97302.03;1223256;75;2919248;-69
2023/07/29 01:36:52;;;;;;;0.90;0.90;;;;;;;19.99;100.00;97307.19;1223934;75;2924695;-66
2023/07/29 01:39:30;;;;;;;1.20;0.90;;;;;;;19.96;100.00;97311.06;1221726;75;2931250;-68
2023/07/29 01:42:04;;;;;;;3.10;1.90;;;;;;;19.26;100.00;97314.66;1223087;75;2927267;-68
2023/07/29 01:44:37;;;;;;;2.55;2.00;;;;;;;19.01;100.00;97324.66;1223402;75;2907542;-68
2023/07/29 01:47:10;;;;;;;3.35;1.95;;;;;;;19.13;100.00;97321.03;1223590;75;2929078;-71
2023/07/29 01:49:43;;;;;;;2.20;1.60;;;;;;;19.20;100.00;97313.34;1224096;75;2922135;-68
2023/07/29 01:52:15;;;;;;;3.45;1.90;;;;;;;19.02;100.00;97326.84;1221963;75;2926278;-68
2023/07/29 01:54:50;;;;;;;2.20;1.75;;;;;;;18.89;100.00;97322.13;1222449;75;2985465;-69
2023/07/29 01:57:23;;;;;;;4.00;2.10;;;;;;;18.90;100.00;97328.41;1223837;75;2920023;-69
2023/07/29 01:59:55;;;;;;;2.50;2.00;;;;;;;18.94;100.00;97321.25;1223377;75;2928347;-67
2023/07/29 02:02:28;;;;;;;3.40;2.05;;;;;;;18.86;100.00;97316.94;1223465;75;2924992;-67
2023/07/29 02:05:01;;;;;;;1.75;1.40;;;;;;;19.09;100.00;97317.84;1223840;75;2927500;-64
2023/07/29 02:07:33;;;;;;;1.75;1.40;;;;;;;19.30;100.00;97323.41;1221987;75;2909276;-64
2023/07/29 02:10:10;;;;;;;1.45;1.10;;;;;;;19.24;100.00;97322.03;1222859;75;2928550;-66
2023/07/29 02:12:43;;;;;;;1.80;1.20;;;;;;;19.30;100.00;97314.34;1223657;75;2941160;-70
2023/07/29 02:15:15;;;;;;;1.70;1.35;;;;;;;19.14;100.00;97316.22;1223894;75;2929956;-67
2023/07/29 02:17:48;;;;;;;2.85;1.60;;;;;;;18.95;100.00;97313.66;1224292;75;2922356;-68
2023/07/29 02:20:21;;;;;;;3.10;1.80;;;;;;;18.74;100.00;97322.72;1223018;75;2932138;-72
2023/07/29 02:22:53;;;;;;;2.05;1.85;;;;;;;18.93;100.00;97319.03;1223036;75;2926867;-68
2023/07/29 02:25:28;;;;;;;1.85;1.50;;;;;;;18.82;100.00;97325.56;1223299;75;2938990;-69
2023/07/29 02:28:03;;;;;;;2.20;1.95;;;;;;;18.65;100.00;97319.66;1223639;75;2921280;-66
2023/07/29 02:30:36;;;;;;;2.90;2.15;;;;;;;18.54;100.00;97323.41;1222406;75;2936047;-68
2023/07/29 02:33:08;;;;;;;2.40;1.80;;;;;;;18.98;100.00;97317.38;1223020;75;2923554;-65
2023/07/29 02:35:41;;;;;;;1.30;1.20;;;;;;;19.00;100.00;97329.44;1223170;75;2930292;-67
2023/07/29 02:38:13;;;;;;;2.65;1.80;;;;;;;18.85;100.00;97320.97;1223277;75;2923989;-68
2023/07/29 02:40:48;;;;;;;1.95;1.70;;;;;;;18.79;100.00;97323.16;1222993;75;2932172;-70
2023/07/29 02:43:21;;;;;;;1.90;1.40;;;;;;;19.04;100.00;97327.06;1223962;75;2924715;-70
2023/07/29 02:45:54;;;;;;;2.60;1.20;;;;;;;19.13;100.00;97331.41;1220629;75;2932536;-69
2023/07/29 02:48:26;;;;;;;1.35;1.25;;;;;;;19.05;100.00;97328.56;1223580;75;2934654;-65
2023/07/29 02:50:59;;;;;;;1.60;1.25;;;;;;;19.00;100.00;97335.00;1223209;75;2930006;-66
2023/07/29 02:53:32;;;;;;;1.55;1.30;;;;;;;18.85;100.00;97335.59;1223309;75;2925487;-69
2023/07/29 02:56:09;;;;;;;1.30;1.20;;;;;;;18.81;100.00;97329.66;1223860;75;2934732;-64
2023/07/29 02:58:41;;;;;;;1.55;1.20;;;;;;;18.97;100.00;97324.97;1223426;75;2935650;-66
2023/07/29 03:01:14;;;;;;;1.20;1.05;;;;;;;19.07;100.00;97325.22;1221351;75;2932449;-69
2023/07/29 03:03:47;;;;;;;1.55;0.95;;;;;;;19.02;100.00;97328.91;1223152;75;2928023;-67
2023/07/29 03:06:19;;;;;;;4.80;1.90;;;;;;;18.64;100.00;97332.78;1223769;75;2924642;-69
2023/07/29 03:08:52;;;;;;;2.05;1.65;;;;;;;18.76;100.00;97329.72;1223222;75;2930221;-64
2023/07/29 03:11:27;;;;;;;2.05;1.65;;;;;;;18.88;100.00;97330.97;1223200;75;2929496;-65
2023/07/29 03:14:00;;;;;;;2.00;1.60;;;;;;;18.88;100.00;97334.53;1223477;75;2915789;-72
2023/07/29 03:16:33;;;;;;;3.30;2.20;;;;;;;18.55;100.00;97336.00;1222838;75;2931704;-69
2023/07/29 03:19:06;;;;;;;2.60;1.90;;;;;;;18.64;100.00;97338.31;1223424;75;2927454;-70
2023/07/29 03:21:38;;;;;;;4.55;2.25;;;;;;;18.30;100.00;97335.53;1223966;75;2929062;-67
2023/07/29 03:24:11;;;;;;;2.15;1.80;;;;;;;18.50;100.00;97334.84;1223316;75;2926305;-65
2023/07/29 03:26:46;;;;;;;2.35;1.85;;;;;;;18.68;100.00;97340.75;1221373;75;2950959;-66
2023/07/29 03:29:19;;;;;;;1.50;1.40;;;;;;;18.91;100.00;97338.97;1224541;75;2919101;-72
2023/07/29 03:31:51;;;;;;;2.05;1.35;;;;;;;18.90;100.00;97337.47;1223452;75;2936893;-67
2023/07/29 03:34:24;;;;;;;1.25;1.00;;;;;;;19.06;100.00;97332.81;1224469;75;2925256;-69
2023/07/29 03:36:57;;;;;;;2.30;0.95;;;;;;;19.07;100.00;97319.69;1222463;75;2928799;-68
2023/07/29 03:39:29;;;;;;;1.15;1.05;;;;;;;19.09;100.00;97314.34;1222094;75;2930556;-67
2023/07/29 03:42:05;;;;;;;1.20;1.10;;;;;;;19.12;100.00;97321.56;1222956;75;2924204;-75
2023/07/29 03:44:39;;;;;;;1.25;1.00;;;;;;;19.12;100.00;97327.88;1223359;75;2923957;-65
2023/07/29 03:47:11;;;;;;;1.10;0.90;;;;;;;19.14;100.00;97332.88;1223219;75;2921081;-68
2023/07/29 03:49:44;;;;;;;1.65;1.25;;;;;;;19.01;100.00;97328.16;1223744;75;2925899;-70
2023/07/29 03:52:17;;;;;;;1.25;1.00;;;;;;;19.13;100.00;97331.41;1222782;75;2925220;-65
2023/07/29 03:54:49;;;;;;;1.15;0.95;;;;;;;19.16;100.00;97338.63;1224307;75;2923720;-67
2023/07/29 03:57:24;;;;;;;0.95;0.85;;;;;;;19.05;100.00;97345.22;1223424;75;2925902;-66
2023/07/29 03:59:57;;;;;;;1.50;1.40;;;;;;;19.09;100.00;97344.88;1223559;67;2931766;-70
2023/07/29 04:02:29;;;;;;;2.15;1.20;;;;;;;19.06;100.00;97341.13;1223430;75;2928276;-65
2023/07/29 04:05:02;;;;;;;1.30;1.20;;;;;;;19.15;100.00;97342.72;1223788;75;2927372;-67
2023/07/29 04:07:35;;;;;;;1.35;1.10;;;;;;;19.21;100.00;97348.84;1223325;75;2935102;-66
2023/07/29 04:10:10;;;;;;;1.20;1.10;;;;;;;19.30;100.00;97356.69;1222678;75;2927646;-66
2023/07/29 04:12:46;;;;;;;0.95;0.85;;;;;;;19.23;100.00;97364.97;1222423;75;2925014;-69
2023/07/29 04:15:19;;;;;;;0.95;0.85;;;;;;;19.29;100.00;97360.00;1222747;75;2922620;-65
2023/07/29 04:17:52;;;;;;;1.60;1.00;;;;;;;19.36;100.00;97367.66;1223086;75;2929340;-70
2023/07/29 04:20:25;;;;;;;2.00;1.20;;;;;;;19.29;100.00;97357.22;1220597;75;2927504;-69
2023/07/29 04:22:57;;;;;;;1.10;0.90;;;;;;;19.41;100.00;97374.34;1222736;75;2949164;-66
2023/07/29 04:25:31;;;;;;;1.35;1.00;;;;;;;19.41;100.00;97372.34;1223287;75;2926629;-66
2023/07/29 04:28:06;;;;;;;1.30;1.00;;;;;;;19.41;100.00;97379.91;1223199;75;2923554;-69
2023/07/29 04:30:39;;;;;;;1.30;1.10;;;;;;;19.43;100.00;97380.13;1222080;75;2925563;-68
2023/07/29 04:33:12;;;;;;;1.70;1.20;;;;;;;19.40;100.00;97373.63;1221839;75;2945556;-70
2023/07/29 04:35:44;;;;;;;1.15;1.00;;;;;;;19.34;100.00;97371.00;1223634;75;2926146;-66
2023/07/29 04:38:17;;;;;;;1.70;1.00;;;;;;;19.40;100.00;97379.16;1223043;75;2929295;-66
2023/07/29 04:40:51;;;;;;;2.95;1.60;;;;;;;19.31;100.00;97376.88;1223069;75;2935600;-67
2023/07/29 04:43:29;;;;;;;1.20;1.00;;;;;;;19.44;100.00;97379.56;1223161;75;2934445;-68
2023/07/29 04:46:02;;;;;;;1.10;1.00;;;;;;;19.52;100.00;97380.38;1223289;75;2943756;-68
2023/07/29 04:48:34;;;;;;;1.65;1.00;;;;;;;19.60;100.00;97380.41;1222895;75;2933649;-65
2023/07/29 04:51:07;;;;;;;1.10;0.90;;;;;;;19.68;100.00;97383.31;1222087;75;2925300;-67
2023/07/29 04:53:40;;;;;;;1.00;0.90;;;;;;;19.55;100.00;97384.84;1224181;75;2921331;-69
2023/07/29 04:56:12;;;;;;;1.25;1.15;;;;;;;19.27;100.00;97384.81;1223013;75;2933594;-70
2023/07/29 04:58:48;;;;;;;1.30;1.20;;;;;;;19.36;100.00;97387.84;1223950;75;2921322;-70
2023/07/29 05:01:20;;;;;;;2.05;1.60;;;;;;;19.47;100.00;97384.03;1223243;75;2918181;-68
2023/07/29 05:03:53;;;;;;;1.80;1.15;;;;;;;19.69;100.00;97387.56;1223154;75;2923434;-68
2023/07/29 05:06:25;;;;;;;2.10;1.50;;;;;;;19.68;100.00;97384.03;1223332;75;2924778;-70
2023/07/29 05:09:00;;;;;;;2.65;1.70;;;;;;;19.72;100.00;97394.78;1223320;83;2922635;-67
2023/07/29 05:11:33;;;;;;;2.10;1.40;;;;;;;19.89;100.00;97389.56;1220333;75;3019009;-67
2023/07/29 05:14:09;;;;;;;2.65;1.75;;;;;;;20.01;100.00;97378.88;1222992;75;2923042;-70
2023/07/29 05:16:42;;;;;;;1.70;1.55;;;;;;;20.12;100.00;97386.91;1223023;75;2923072;-70
2023/07/29 05:19:14;;;;;;;1.00;0.90;;;;;;;20.15;100.00;97382.28;1222819;75;2930074;-67
2023/07/29 05:21:47;;;;;;;1.40;1.30;;;;;;;20.10;100.00;97395.03;1222810;75;2927887;-68
2023/07/29 05:24:19;;;;;;;2.05;1.85;;;;;;;20.30;100.00;97387.16;1222829;75;2924031;-66
2023/07/29 05:26:52;;;;;;;2.85;2.20;;;;;;;20.35;100.00;97391.84;1222828;75;2930240;-72
2023/07/29 05:29:27;;;;;;;1.90;1.60;;;;;;;20.48;100.00;97388.91;1223705;75;2928400;-69
2023/07/29 05:32:00;;;;;;;2.00;1.80;;;;;;;20.48;100.00;97388.19;1222524;75;2925944;-69
2023/07/29 05:34:33;;;;;;;2.45;1.40;;;;;;;20.56;100.00;97384.16;1222959;75;2926242;-69
2023/07/29 05:37:06;;;;;;;2.00;1.70;;;;;;;20.61;100.00;97385.28;1223114;75;2925208;-69
2023/07/29 05:39:38;;;;;;;2.50;1.75;;;;;;;20.63;100.00;97396.59;1223637;75;2926545;-65
2023/07/29 05:42:11;;;;;;;4.45;3.35;;;;;;;20.33;100.00;97403.50;1223163;75;2928724;-69
2023/07/29 05:44:46;;;;;;;9.80;8.05;;;;;;;20.52;100.00;97392.09;1222927;75;2946221;-67
2023/07/29 05:47:19;;;;;;;6.15;5.50;;;;;;;20.66;100.00;97383.63;1222704;75;2934166;-68
2023/07/29 05:49:51;;;;;;;5.30;4.45;;;;;;;20.77;100.00;97389.59;1223457;75;2942341;-67
2023/07/29 05:52:24;;;;;;;3.60;2.70;;;;;;;20.80;100.00;97398.88;1222035;75;3015462;-69
2023/07/29 05:54:56;;;;;;;3.10;2.80;;;;;;;20.81;100.00;97403.16;1222858;75;2924705;-70
2023/07/29 05:57:29;;;;;;;2.15;1.80;;;;;;;20.84;100.00;97402.78;1222677;75;2929883;-70
2023/07/29 06:00:05;;;;;;;3.25;2.35;;;;;;;20.96;100.00;97396.88;1223378;75;2923136;-68
2023/07/29 06:02:38;;;;;;;7.35;6.55;;;;;;;20.93;100.00;97415.44;1222738;75;2918327;-71
2023/07/29 06:05:11;;;;;;;5.50;4.60;;;;;;;20.38;100.00;97413.72;1223103;75;2921383;-71
2023/07/29 06:07:44;;;;;;;4.00;3.35;;;;;;;20.43;100.00;97412.81;1223744;75;2928920;-70
2023/07/29 06:10:20;;;;;;;3.45;2.35;;;;;;;20.30;100.00;97417.75;1222316;83;2927828;-69
2023/07/29 06:12:52;;;;;;;3.55;2.60;;;;;;;20.25;100.00;97407.53;1222816;75;2926481;-71
2023/07/29 06:15:28;;;;;;;3.15;2.45;;;;;;;20.27;100.00;97407.72;1223643;75;2923322;-69
2023/07/29 06:18:00;;;;;;;3.40;1.95;;;;;;;20.33;100.00;97406.28;1223401;75;2929849;-70
2023/07/29 06:20:33;;;;;;;4.40;2.65;;;;;;;20.37;100.00;97405.91;1223727;75;2922293;-68
2023/07/29 06:23:05;;;;;;;4.45;2.30;;;;;;;20.65;100.00;97405.13;1223478;75;2924301;-70
2023/07/29 06:25:39;;;;;;;2.30;2.00;;;;;;;20.97;100.00;97395.56;1220133;75;2979153;-68
2023/07/29 06:28:13;;;;;;;2.60;2.00;;;;;;;20.97;100.00;97388.00;1217458;75;2967691;-67
2023/07/29 06:30:49;;;;;;;3.20;2.60;;;;;;;20.76;100.00;97396.47;1208337;75;3059704;-71
2023/07/29 06:33:22;;;;;;;3.10;2.60;;;;;;;20.89;100.00;97392.78;1215498;75;2932553;-66
2023/07/29 06:35:55;;;;;;;3.70;2.75;;;;;;;21.04;100.00;97392.81;1216191;75;2951966;-68
2023/07/29 06:38:28;;;;;;;2.80;2.40;;;;;;;21.06;100.00;97381.88;1180684;83;5789969;-71
2023/07/29 06:41:01;;;;;;;;;;;;;;;21.39;100.00;97392.50;1213638;75;3142881;-67
2023/07/29 06:43:34;;;;;;;3.10;1.90;;;;;;;21.59;100.00;97394.34;1220353;75;2930425;-68
2023/07/29 06:46:10;;;;;;;2.25;1.95;;;;;;;21.76;100.00;97385.44;1214236;75;3027228;-68
2023/07/29 06:48:43;;;;;;;2.30;1.90;;;;;;;22.15;100.00;97388.88;1210326;75;3108235;-70
2023/07/29 06:51:16;;;;;;;2.95;2.25;;;;;;;22.13;100.00;97385.94;1217079;75;3066476;-69
2023/07/29 06:53:48;;;;;;;4.55;2.95;;;;;;;22.30;100.00;97391.66;1223080;75;2919833;-71
2023/07/29 06:56:21;;;;;;;4.10;3.00;;;;;;;22.07;100.00;97386.13;1223462;75;2920999;-67
2023/07/29 06:58:53;;;;;;;3.70;2.60;;;;;;;22.03;94.49;97388.56;1222597;75;2929436;-70
2023/07/29 07:01:29;;;;;;;2.90;2.10;;;;;;;22.19;93.10;97394.09;1222688;75;2919906;-71
2023/07/29 07:04:01;;;;;;;3.95;2.40;;;;;;;22.12;94.90;97390.75;1222704;75;2925848;-69
2023/07/29 07:06:34;;;;;;;3.85;2.70;;;;;;;22.16;97.49;97395.22;1222644;75;2929308;-72
2023/07/29 07:09:06;;;;;;;4.40;2.35;;;;;;;22.28;98.31;97393.53;1222420;75;2931148;-69
2023/07/29 07:11:39;;;;;;;3.70;2.90;;;;;;;22.18;95.43;97395.41;1190031;75;5505522;-69
2023/07/29 07:14:11;;;;;;;3.90;2.90;;;;;;;22.18;94.92;97389.81;1221110;75;2923336;-68
2023/07/29 07:16:47;;;;;;;4.15;2.85;;;;;;;22.32;96.26;97385.50;1222647;75;2925097;-69
2023/07/29 07:19:19;;;;;;;3.90;2.75;;;;;;;22.16;97.39;97381.28;1223518;75;2919448;-69
2023/07/29 07:21:52;;;;;;;3.65;2.50;;;;;;;22.30;96.60;97380.50;1222519;75;2924366;-70
2023/07/29 07:24:25;;;;;;;4.05;3.45;;;;;;;22.51;93.50;97374.66;1223235;75;2930310;-70
2023/07/29 07:26:58;;;;;;;4.10;2.80;;;;;;;22.69;89.68;97369.91;1223284;75;2927197;-71
2023/07/29 07:29:30;;;;;;;3.40;2.55;;;;;;;22.76;90.49;97362.81;1220965;75;2946543;-70
2023/07/29 07:32:06;;;;;;;3.55;2.45;;;;;;;23.00;90.51;97366.25;1219509;75;2926974;-67
2023/07/29 07:34:38;;;;;;;3.50;2.45;;;;;;;23.61;82.50;97360.16;1221636;75;2921883;-70
2023/07/29 07:37:11;;;;;;;3.50;2.55;;;;;;;23.31;78.95;97367.50;1222957;75;2922456;-68
2023/07/29 07:39:44;;;;;;;3.20;2.40;;;;;;;23.64;77.66;97361.81;1223144;75;2923322;-69
2023/07/29 07:42:16;;;;;;;5.35;2.95;;;;;;;23.40;77.56;97366.13;1221461;75;2931231;-70
2023/07/29 07:44:49;;;;;;;3.70;2.60;;;;;;;23.59;75.31;97357.97;1221888;75;2926860;-67
2023/07/29 07:47:24;;;;;;;3.35;2.85;;;;;;;24.00;74.85;97366.16;1223135;75;2927425;-68
2023/07/29 07:49:57;;;;;;;3.35;2.60;;;;;;;23.94;70.82;97365.66;1223427;75;2923931;-67
2023/07/29 07:52:29;;;;;;;3.85;2.40;;;;;;;24.58;68.84;97363.84;1222894;75;2919037;-69
2023/07/29 07:55:02;;;;;;;2.60;2.10;;;;;;;24.71;69.12;97365.53;1223224;75;2925054;-69
2023/07/29 07:57:34;;;;;;;3.10;2.05;;;;;;;24.71;69.37;97367.59;1223694;75;2924188;-69
2023/07/29 08:00:09;;;;;;;3.10;2.30;;;;;;;24.56;69.02;97371.34;1223038;75;2923035;-67
2023/07/29 08:02:44;;;;;;;3.50;2.55;;;;;;;24.79;69.85;97365.41;1222001;75;2925017;-69
2023/07/29 08:05:18;;;;;;;5.70;2.35;;;;;;;24.80;69.11;97361.31;1223389;75;2933547;-71
2023/07/29 08:07:50;;;;;;;3.50;2.10;;;;;;;25.05;68.81;97366.72;1223081;83;2924412;-71
2023/07/29 08:10:23;;;;;;;2.60;1.90;;;;;;;25.14;63.08;97349.22;1219264;75;3027728;-70
2023/07/29 08:12:55;;;;;;;2.45;1.90;;;;;;;25.59;63.85;97354.69;1221628;75;2925998;-70
2023/07/29 08:15:28;;;;;;;2.75;2.15;;;;;;;25.82;66.59;97345.88;1223007;75;2926861;-71
2023/07/29 08:18:04;;;;;;;2.55;2.10;;;;;;;25.73;62.50;97353.66;1222638;75;2930968;-69
2023/07/29 08:20:36;;;;;;;2.85;2.30;;;;;;;25.35;63.09;97356.38;1221871;75;2926161;-69
2023/07/29 08:23:09;;;;;;;2.95;2.15;;;;;;;25.51;64.48;97352.00;1223470;75;2960675;-69
2023/07/29 08:25:41;;;;;;;3.15;2.40;;;;;;;25.60;64.61;97351.28;1223575;75;2921586;-69
2023/07/29 08:28:14;;;;;;;3.15;2.30;;;;;;;26.21;64.31;97351.50;1222394;75;2933863;-70
2023/07/29 08:30:46;;;;;;;3.05;2.20;;;;;;;26.45;69.56;97349.72;1221252;75;2931040;-69
2023/07/29 08:33:22;;;;;;;3.85;2.90;;;;;;;25.96;77.16;97344.13;1222688;75;2925278;-68
2023/07/29 08:35:57;;;;;;;3.75;2.80;;;;;;;25.87;78.48;97345.59;1222608;75;2930895;-70
2023/07/29 08:38:29;;;;;;;4.35;2.90;;;;;;;25.52;84.68;97339.50;1223292;75;2921866;-67
2023/07/29 08:41:14;;;;;;;4.40;2.35;;;;;;;25.67;88.99;97335.69;1223060;75;2923034;-70
2023/07/29 08:43:53;;;;;;;7.45;3.10;;;;;;;25.19;91.10;97337.03;1221453;75;2929343;-70
2023/07/29 08:46:27;;;;;;;3.80;3.05;;;;;;;25.67;90.34;97341.28;1222269;75;2924064;-70
2023/07/29 08:49:03;;;;;;;3.90;2.70;;;;;;;25.63;84.65;97346.59;1223087;75;2960356;-68
2023/07/29 08:51:36;;;;;;;5.20;2.45;;;;;;;25.56;84.09;97347.44;1222449;75;2892171;-69
2023/07/29 08:54:09;;;;;;;3.80;2.40;;;;;;;26.02;79.55;97349.44;1221715;75;2924994;-70
2023/07/29 08:56:44;;;;;;;4.10;2.60;;;;;;;25.32;77.07;97352.69;1222418;75;2920401;-71
2023/07/29 08:59:18;;;;;;;3.15;2.20;;;;;;;26.15;71.55;97346.22;1221894;75;2932249;-68
2023/07/29 09:01:55;;;;;;;5.20;2.45;;;;;;;25.99;69.88;97347.84;1221683;75;2923510;-70
2023/07/29 09:04:30;;;;;;;3.05;2.30;;;;;;;26.38;69.00;97350.63;1223141;75;2926308;-71
2023/07/29 09:07:03;;;;;;;3.15;2.30;;;;;;;26.50;67.45;97351.47;1223614;75;2925785;-71
2023/07/29 09:09:36;;;;;;;2.60;2.30;;;;;;;26.51;66.95;97347.34;1219505;75;3062620;-68
2023/07/29 09:12:11;;;;;;;3.15;2.10;;;;;;;26.42;63.64;97334.06;1221240;75;2929121;-71
2023/07/29 09:14:44;;;;;;;2.85;2.20;;;;;;;27.03;62.04;97332.72;1222124;75;2924976;-71
2023/07/29 09:17:17;;;;;;;2.90;2.10;;;;;;;26.99;61.01;97336.00;1222145;75;2922514;-68
2023/07/29 09:19:55;;;;;;;3.00;2.00;;;;;;;26.89;58.67;97337.38;1188135;75;5643649;-68
2023/07/29 09:22:29;;;;;;;3.90;2.00;;;;;;;26.77;60.28;97334.44;1219771;75;2982797;-70
2023/07/29 09:25:02;;;;;;;3.00;1.90;;;;;;;26.67;60.10;97337.28;1223624;75;2844420;-68
2023/07/29 09:27:38;;;;;;;2.80;2.00;;;;;;;26.38;60.79;97330.97;1222632;75;2928903;-71
2023/07/29 09:30:19;;;;;;;3.55;2.30;;;;;;;26.93;58.61;97323.63;1222151;75;2929128;-72
2023/07/29 09:32:59;;;;;;;2.20;1.95;;;;;;;27.03;57.68;97320.75;1220206;75;2933481;-69
2023/07/29 09:35:38;;;;;;;3.30;2.10;;;;;;;27.50;60.06;97321.16;1221133;75;3036877;-68
2023/07/29 09:38:11;;;;;;;2.50;2.05;;;;;;;27.57;59.69;97308.97;1222832;75;2918806;-71
2023/07/29 09:40:45;;;;;;;2.65;1.90;;;;;;;27.61;57.51;97314.84;1222718;75;2926694;-69
2023/07/29 09:43:20;;;;;;;3.20;2.10;;;;;;;27.79;58.77;97310.44;1222317;75;2921760;-68
2023/07/29 09:45:55;;;;;;;2.35;1.90;;;;;;;28.38;56.86;97313.53;1223283;75;2929019;-69
2023/07/29 09:48:28;;;;;;;2.55;2.00;;;;;;;28.26;56.44;97315.53;1222944;75;2925929;-70
2023/07/29 09:51:12;;;;;;;3.85;2.25;;;;;;;28.27;54.97;97311.41;1223463;75;2928307;-69
2023/07/29 09:53:47;;;;;;;2.85;1.80;;;;;;;28.42;56.52;97316.56;1221757;75;2922529;-70
2023/07/29 09:56:20;;;;;;;2.90;2.20;;;;;;;28.29;55.89;97307.97;1223157;75;2920929;-68
2023/07/29 09:58:53;;;;;;;3.10;1.95;;;;;;;28.08;57.09;97311.56;1223112;75;2928591;-69
2023/07/29 10:01:26;;;;;;;3.15;2.20;;;;;;;27.97;56.90;97322.19;1222334;75;2929198;-70
2023/07/29 10:04:01;;;;;;;2.85;2.25;;;;;;;28.23;56.54;97314.69;1222798;75;2945717;-72
2023/07/29 10:06:37;;;;;;;2.80;2.30;;;;;;;28.15;56.58;97302.91;1222898;75;2925088;-69
2023/07/29 10:09:10;;;;;;;3.20;1.95;;;;;;;28.27;56.46;97308.59;1222734;75;2924554;-68
2023/07/29 10:11:44;;;;;;;2.40;1.90;;;;;;;28.40;57.78;97319.25;1221233;75;2921684;-70
2023/07/29 10:14:18;;;;;;;3.25;2.20;;;;;;;28.49;55.69;97314.91;1218277;75;3202981;-72
2023/07/29 10:16:52;;;;;;;2.45;1.90;;;;;;;28.36;55.65;97307.75;1223093;75;2926272;-72
2023/07/29 10:19:25;;;;;;;2.00;1.80;;;;;;;28.81;54.34;97310.53;1223615;75;2921162;-67
2023/07/29 10:22:03;;;;;;;2.70;2.10;;;;;;;28.87;52.98;97315.84;1222488;75;2930388;-70
2023/07/29 10:24:38;;;;;;;;;;;;;;;28.96;52.83;97314.22;1223738;75;2923632;-70
2023/07/29 10:27:14;;;;;;;2.65;2.05;;;;;;;28.86;52.24;97308.72;1224058;75;2920133;-70
2023/07/29 10:29:48;;;;;;;2.45;1.90;;;;;;;29.85;53.61;97316.03;1224278;75;2922931;-69
2023/07/29 10:32:23;;;;;;;2.65;2.05;;;;;;;29.51;52.47;97309.06;1222879;75;2928300;-70
2023/07/29 10:34:56;;;;;;;2.65;2.15;;;;;;;29.67;51.50;97310.06;1223611;75;2930580;-70
2023/07/29 10:37:31;;;;;;;2.95;1.80;;;;;;;30.09;49.74;97308.22;1224354;75;2919079;-72
2023/07/29 10:40:08;;;;;;;1.85;1.45;;;;;;;30.42;49.36;97307.19;1223441;75;2921367;-70
2023/07/29 10:42:42;;;;;;;2.10;1.90;;;;;;;29.92;51.53;97306.56;1222910;75;2928698;-70
2023/07/29 10:45:25;;;;;;;2.20;1.90;;;;;;;30.18;50.73;97308.66;1222631;75;2923439;-67
2023/07/29 10:47:58;;;;;;;2.40;1.80;;;;;;;29.60;49.84;97299.00;1224216;75;2921526;-69
2023/07/29 10:50:30;;;;;;;2.85;1.85;;;;;;;29.80;49.00;97299.47;1223617;75;2924496;-71
2023/07/29 10:53:06;;;;;;;1.70;1.60;;;;;;;29.79;48.23;97295.91;1223378;75;2941753;-69
2023/07/29 10:55:41;;;;;;;2.35;1.70;;;;;;;30.05;48.47;97285.38;1223468;75;2920564;-70
2023/07/29 10:58:18;;;;;;;2.20;1.50;;;;;;;30.75;46.77;97281.44;1223156;75;2924502;-68
2023/07/29 11:00:52;;;;;;;2.50;1.50;;;;;;;30.78;47.70;97288.66;1223520;75;2920560;-69
2023/07/29 11:03:28;;;;;;;2.25;1.50;;;;;;;29.61;47.44;97292.00;1222940;75;2922582;-70
2023/07/29 11:06:09;;;;;;;2.00;1.70;;;;;;;29.81;48.03;97273.47;1223348;75;2924210;-72
2023/07/29 11:08:44;;;;;;;1.70;1.45;;;;;;;29.90;47.26;97280.31;1224012;75;2925092;-68
2023/07/29 11:11:16;;;;;;;1.90;1.60;;;;;;;30.33;45.12;97269.31;1223120;75;2921046;-72
2023/07/29 11:13:49;;;;;;;1.70;1.40;;;;;;;30.74;46.66;97268.69;1223738;75;2922990;-67
2023/07/29 11:16:22;;;;;;;1.90;1.55;;;;;;;30.56;46.90;97271.25;1223043;75;2918351;-70
2023/07/29 11:18:55;;;;;;;1.85;1.50;;;;;;;29.85;48.23;97270.88;1223359;75;2932733;-69
2023/07/29 11:21:30;;;;;;;1.60;1.50;;;;;;;29.93;46.99;97264.94;1223076;75;2922485;-70
2023/07/29 11:24:06;;;;;;;1.70;1.55;;;;;;;29.94;47.87;97260.75;1222295;75;2928881;-70
2023/07/29 11:26:49;;;;;;;2.35;1.60;;;;;;;29.87;48.53;97256.88;1223286;75;2942543;-69
2023/07/29 11:29:21;;;;;;;2.65;1.60;;;;;;;29.89;48.45;97256.97;1223022;75;2928426;-69
2023/07/29 11:31:55;;;;;;;1.60;1.40;;;;;;;31.10;47.27;97240.13;1223165;75;2931574;-70
2023/07/29 11:34:35;;;;;;;1.50;1.40;;;;;;;30.46;48.32;97247.38;1223065;75;2923365;-68
2023/07/29 11:37:09;;;;;;;1.90;1.65;;;;;;;30.47;47.54;97237.53;1223570;75;2926650;-70
2023/07/29 11:39:47;;;;;;;2.10;1.40;;;;;;;30.81;48.70;97241.47;1223220;75;2931394;-69
2023/07/29 11:42:20;;;;;;;3.05;1.60;;;;;;;30.63;48.40;97240.50;1222874;75;2933951;-67